sensor_id;sensor_type;location;lat;lon;timestamp;pressure;altitude;pressure_sealevel;temperature;humidity
2397;BME280;1209;48.410;9.054;2023-06-01T00:01:30;96371.19;;;15.67;100.00
2397;BME280;1209;48.410;9.054;2023-06-01T00:03:59;96373.16;;;15.52;100.00
2397;BME280;1209;48.410;9.054;2023-06-01T00:06:24;96376.41;;;15.34;100.00
2397;BME280;1209;48.410;9.054;2023-06-01T00:08:53;96373.56;;;15.23;100.00
2397;BME280;1209;48.410;9.054;2023-06-01T00:11:19;96372.13;;;15.14;100.00
2397;BME280;1209;48.410;9.054;2023-06-01T00:13:44;96370.13;;;15.16;100.00
2397;BME280;1209;48.410;9.054;2023-06-01T00:16:11;96371.13;;;15.21;100.00
2397;BME280;1209;48.410;9.054;2023-06-01T00:18:37;96360.19;;;15.18;100.00
2397;BME280;1209;48.410;9.054;2023-06-01T00:21:03;96365.06;;;15.14;100.00
2397;BME280;1209;48.410;9.054;2023-06-01T00:23:28;96354.91;;;15.11;100.00
2397;BME280;1209;48.410;9.054;2023-06-01T00:25:53;96354.88;;;14.91;100.00
2397;BME280;1209;48.410;9.054;2023-06-01T00:28:19;96352.47;;;14.96;100.00
2397;BME280;1209;48.410;9.054;2023-06-01T00:30:44;96355.69;;;14.85;100.00
2397;BME280;1209;48.410;9.054;2023-06-01T00:33:10;96351.00;;;14.74;100.00
2397;BME280;1209;48.410;9.054;2023-06-01T00:35:35;96352.22;;;14.71;100.00
2397;BME280;1209;48.410;9.054;2023-06-01T00:38:00;96355.38;;;14.60;100.00
2397;BME280;1209;48.410;9.054;2023-06-01T00:40:26;96356.16;;;14.47;100.00
2397;BME280;1209;48.410;9.054;2023-06-01T00:42:51;96352.94;;;14.52;100.00
2397;BME280;1209;48.410;9.054;2023-06-01T00:45:16;96352.91;;;14.45;100.00
2397;BME280;1209;48.410;9.054;2023-06-01T00:47:42;96357.31;;;14.38;100.00
2397;BME280;1209;48.410;9.054;2023-06-01T00:50:10;96350.78;;;14.28;100.00
2397;BME280;1209;48.410;9.054;2023-06-01T00:52:37;96349.91;;;14.14;100.00
2397;BME280;1209;48.410;9.054;2023-06-01T00:55:04;96350.81;;;13.93;100.00
2397;BME280;1209;48.410;9.054;2023-06-01T00:57:29;96347.56;;;13.91;100.00
2397;BME280;1209;48.410;9.054;2023-06-01T00:59:55;96352.84;;;13.98;100.00
2397;BME280;1209;48.410;9.054;2023-06-01T01:02:22;96348.41;;;13.98;100.00
2397;BME280;1209;48.410;9.054;2023-06-01T01:04:48;96347.63;;;14.04;100.00
2397;BME280;1209;48.410;9.054;2023-06-01T01:10:13;96343.94;;;13.92;100.00
2397;BME280;1209;48.410;9.054;2023-06-01T01:13:00;96339.53;;;13.99;100.00
2397;BME280;1209;48.410;9.054;2023-06-01T01:18:36;96352.81;;;13.63;100.00
2397;BME280;1209;48.410;9.054;2023-06-01T01:21:04;96353.78;;;13.83;100.00
2397;BME280;1209;48.410;9.054;2023-06-01T01:26:51;96352.66;;;13.99;100.00
2397;BME280;1209;48.410;9.054;2023-06-01T01:29:19;96353.19;;;13.88;100.00
2397;BME280;1209;48.410;9.054;2023-06-01T01:31:46;96350.81;;;13.93;100.00
2397;BME280;1209;48.410;9.054;2023-06-01T01:34:14;96352.03;;;13.97;100.00
2397;BME280;1209;48.410;9.054;2023-06-01T01:36:40;96353.84;;;13.97;100.00
2397;BME280;1209;48.410;9.054;2023-06-01T01:39:06;96349.22;;;13.99;100.00
2397;BME280;1209;48.410;9.054;2023-06-01T01:41:31;96355.59;;;13.83;100.00
2397;BME280;1209;48.410;9.054;2023-06-01T01:43:58;96357.78;;;13.79;100.00
2397;BME280;1209;48.410;9.054;2023-06-01T01:46:29;96356.59;;;13.82;100.00
2397;BME280;1209;48.410;9.054;2023-06-01T01:52:10;96352.13;;;13.76;100.00
2397;BME280;1209;48.410;9.054;2023-06-01T01:54:39;96349.75;;;13.88;100.00
2397;BME280;1209;48.410;9.054;2023-06-01T01:57:07;96348.34;;;13.85;100.00
2397;BME280;1209;48.410;9.054;2023-06-01T01:59:33;96345.75;;;13.92;100.00
2397;BME280;1209;48.410;9.054;2023-06-01T02:01:59;96352.78;;;13.84;100.00
2397;BME280;1209;48.410;9.054;2023-06-01T02:04:24;96343.66;;;13.80;100.00
2397;BME280;1209;48.410;9.054;2023-06-01T02:06:51;96342.47;;;13.83;100.00
2397;BME280;1209;48.410;9.054;2023-06-01T02:09:16;96342.09;;;13.58;100.00
2397;BME280;1209;48.410;9.054;2023-06-01T02:11:41;96345.22;;;13.47;100.00
2397;BME280;1209;48.410;9.054;2023-06-01T02:14:06;96340.84;;;13.54;100.00
2397;BME280;1209;48.410;9.054;2023-06-01T02:16:32;96346.03;;;13.47;100.00
2397;BME280;1209;48.410;9.054;2023-06-01T02:18:57;96348.66;;;13.47;100.00
2397;BME280;1209;48.410;9.054;2023-06-01T02:21:27;96343.22;;;13.49;100.00
2397;BME280;1209;48.410;9.054;2023-06-01T02:23:53;96350.09;;;13.50;100.00
2397;BME280;1209;48.410;9.054;2023-06-01T02:26:18;96342.00;;;13.45;100.00
2397;BME280;1209;48.410;9.054;2023-06-01T02:28:44;96342.38;;;13.42;100.00
2397;BME280;1209;48.410;9.054;2023-06-01T02:31:09;96342.66;;;13.26;100.00
2397;BME280;1209;48.410;9.054;2023-06-01T02:33:35;96337.84;;;13.29;100.00
2397;BME280;1209;48.410;9.054;2023-06-01T02:36:01;96336.31;;;13.20;100.00
2397;BME280;1209;48.410;9.054;2023-06-01T02:38:26;96334.50;;;13.20;100.00
2397;BME280;1209;48.410;9.054;2023-06-01T02:40:52;96335.50;;;13.19;100.00
2397;BME280;1209;48.410;9.054;2023-06-01T02:43:18;96335.69;;;13.18;100.00
2397;BME280;1209;48.410;9.054;2023-06-01T02:45:43;96338.47;;;13.16;100.00
2397;BME280;1209;48.410;9.054;2023-06-01T02:48:08;96337.63;;;13.09;100.00
2397;BME280;1209;48.410;9.054;2023-06-01T02:50:34;96340.25;;;13.09;100.00
2397;BME280;1209;48.410;9.054;2023-06-01T02:53:00;96338.06;;;13.13;100.00
2397;BME280;1209;48.410;9.054;2023-06-01T02:55:25;96343.09;;;13.14;100.00
2397;BME280;1209;48.410;9.054;2023-06-01T02:57:50;96345.53;;;13.16;100.00
2397;BME280;1209;48.410;9.054;2023-06-01T03:00:15;96345.38;;;13.17;100.00
2397;BME280;1209;48.410;9.054;2023-06-01T03:02:44;96336.44;;;13.12;100.00
2397;BME280;1209;48.410;9.054;2023-06-01T03:05:11;96341.88;;;13.10;100.00
2397;BME280;1209;48.410;9.054;2023-06-01T03:07:40;96337.38;;;13.04;100.00
2397;BME280;1209;48.410;9.054;2023-06-01T03:10:07;96343.88;;;13.08;100.00
2397;BME280;1209;48.410;9.054;2023-06-01T03:12:32;96345.25;;;13.04;100.00
2397;BME280;1209;48.410;9.054;2023-06-01T03:14:57;96334.31;;;13.01;100.00
2397;BME280;1209;48.410;9.054;2023-06-01T03:17:23;96339.06;;;12.90;100.00
2397;BME280;1209;48.410;9.054;2023-06-01T03:19:48;96330.16;;;12.85;100.00
2397;BME280;1209;48.410;9.054;2023-06-01T03:22:13;96334.59;;;12.70;100.00
2397;BME280;1209;48.410;9.054;2023-06-01T03:24:39;96331.66;;;12.58;100.00
2397;BME280;1209;48.410;9.054;2023-06-01T03:27:06;96332.28;;;12.60;100.00
2397;BME280;1209;48.410;9.054;2023-06-01T03:29:32;96335.28;;;12.57;100.00
2397;BME280;1209;48.410;9.054;2023-06-01T03:31:57;96328.31;;;12.64;100.00
2397;BME280;1209;48.410;9.054;2023-06-01T03:34:22;96326.19;;;12.74;100.00
2397;BME280;1209;48.410;9.054;2023-06-01T03:36:48;96324.03;;;12.78;100.00
2397;BME280;1209;48.410;9.054;2023-06-01T03:39:14;96329.19;;;12.71;100.00
2397;BME280;1209;48.410;9.054;2023-06-01T03:41:42;96334.22;;;12.73;100.00
2397;BME280;1209;48.410;9.054;2023-06-01T03:44:08;96338.34;;;12.60;100.00
2397;BME280;1209;48.410;9.054;2023-06-01T03:46:33;96336.47;;;12.54;100.00
2397;BME280;1209;48.410;9.054;2023-06-01T03:48:58;96331.97;;;12.48;100.00
2397;BME280;1209;48.410;9.054;2023-06-01T03:51:24;96337.94;;;12.42;100.00
2397;BME280;1209;48.410;9.054;2023-06-01T03:53:49;96345.19;;;12.40;100.00
2397;BME280;1209;48.410;9.054;2023-06-01T03:56:14;96342.38;;;12.27;100.00
2397;BME280;1209;48.410;9.054;2023-06-01T03:58:40;96346.63;;;12.28;100.00
2397;BME280;1209;48.410;9.054;2023-06-01T04:01:05;96345.91;;;12.19;100.00
2397;BME280;1209;48.410;9.054;2023-06-01T04:03:31;96346.34;;;12.23;100.00
2397;BME280;1209;48.410;9.054;2023-06-01T04:05:56;96354.22;;;12.23;100.00
2397;BME280;1209;48.410;9.054;2023-06-01T04:08:25;96355.19;;;12.22;100.00
2397;BME280;1209;48.410;9.054;2023-06-01T04:10:51;96354.84;;;12.25;100.00
2397;BME280;1209;48.410;9.054;2023-06-01T04:13:16;96356.81;;;12.23;100.00
2397;BME280;1209;48.410;9.054;2023-06-01T04:15:41;96358.00;;;12.20;100.00
2397;BME280;1209;48.410;9.054;2023-06-01T04:18:07;96364.31;;;12.26;100.00
2397;BME280;1209;48.410;9.054;2023-06-01T04:20:32;96363.44;;;12.34;100.00
2397;BME280;1209;48.410;9.054;2023-06-01T04:22:58;96365.41;;;12.32;100.00
2397;BME280;1209;48.410;9.054;2023-06-01T04:25:23;96373.00;;;12.41;100.00
2397;BME280;1209;48.410;9.054;2023-06-01T04:27:50;96375.13;;;12.52;100.00
2397;BME280;1209;48.410;9.054;2023-06-01T04:30:20;96370.69;;;12.53;100.00
2397;BME280;1209;48.410;9.054;2023-06-01T04:32:47;96378.38;;;12.54;100.00
2397;BME280;1209;48.410;9.054;2023-06-01T04:35:13;96388.84;;;12.54;100.00
2397;BME280;1209;48.410;9.054;2023-06-01T04:37:40;96379.63;;;12.58;100.00
2397;BME280;1209;48.410;9.054;2023-06-01T04:40:07;96383.50;;;12.63;100.00
2397;BME280;1209;48.410;9.054;2023-06-01T04:42:37;96384.94;;;12.65;100.00
2397;BME280;1209;48.410;9.054;2023-06-01T04:45:11;96389.88;;;12.75;100.00
2397;BME280;1209;48.410;9.054;2023-06-01T04:47:37;96384.81;;;12.88;100.00
2397;BME280;1209;48.410;9.054;2023-06-01T04:50:06;96388.50;;;12.93;100.00
2397;BME280;1209;48.410;9.054;2023-06-01T04:52:34;96385.31;;;12.98;100.00
2397;BME280;1209;48.410;9.054;2023-06-01T04:55:00;96385.94;;;13.00;100.00
2397;BME280;1209;48.410;9.054;2023-06-01T04:57:25;96393.44;;;13.03;100.00
2397;BME280;1209;48.410;9.054;2023-06-01T04:59:50;96392.25;;;13.06;100.00
2397;BME280;1209;48.410;9.054;2023-06-01T05:02:17;96396.13;;;13.10;100.00
2397;BME280;1209;48.410;9.054;2023-06-01T05:04:42;96390.88;;;13.10;100.00
2397;BME280;1209;48.410;9.054;2023-06-01T05:07:07;96399.69;;;13.23;100.00
2397;BME280;1209;48.410;9.054;2023-06-01T05:09:32;96383.25;;;13.30;100.00
2397;BME280;1209;48.410;9.054;2023-06-01T05:11:58;96389.50;;;13.29;100.00
2397;BME280;1209;48.410;9.054;2023-06-01T05:14:23;96392.78;;;13.37;100.00
2397;BME280;1209;48.410;9.054;2023-06-01T05:16:48;96391.06;;;13.51;100.00
2397;BME280;1209;48.410;9.054;2023-06-01T05:19:14;96396.00;;;13.61;100.00
2397;BME280;1209;48.410;9.054;2023-06-01T05:21:41;96393.59;;;13.66;100.00
2397;BME280;1209;48.410;9.054;2023-06-01T05:24:07;96393.84;;;13.71;100.00
2397;BME280;1209;48.410;9.054;2023-06-01T05:26:32;96388.69;;;13.77;100.00
2397;BME280;1209;48.410;9.054;2023-06-01T05:28:58;96391.72;;;13.81;100.00
2397;BME280;1209;48.410;9.054;2023-06-01T05:31:23;96391.34;;;13.84;100.00
2397;BME280;1209;48.410;9.054;2023-06-01T05:33:48;96380.88;;;13.91;100.00
2397;BME280;1209;48.410;9.054;2023-06-01T05:36:14;96384.19;;;14.06;100.00
2397;BME280;1209;48.410;9.054;2023-06-01T05:38:39;96379.59;;;14.14;100.00
2397;BME280;1209;48.410;9.054;2023-06-01T05:41:04;96383.28;;;14.20;100.00
2397;BME280;1209;48.410;9.054;2023-06-01T05:43:30;96379.69;;;14.28;100.00
2397;BME280;1209;48.410;9.054;2023-06-01T05:45:55;96381.75;;;14.39;100.00
2397;BME280;1209;48.410;9.054;2023-06-01T05:48:20;96390.75;;;14.58;100.00
2397;BME280;1209;48.410;9.054;2023-06-01T05:50:45;96383.09;;;14.63;100.00
2397;BME280;1209;48.410;9.054;2023-06-01T05:53:11;96383.78;;;14.85;100.00
2397;BME280;1209;48.410;9.054;2023-06-01T05:55:36;96380.78;;;14.94;100.00
2397;BME280;1209;48.410;9.054;2023-06-01T05:58:02;96382.66;;;15.14;100.00
2397;BME280;1209;48.410;9.054;2023-06-01T06:00:27;96381.66;;;15.34;100.00
2397;BME280;1209;48.410;9.054;2023-06-01T06:02:52;96380.84;;;15.47;100.00
2397;BME280;1209;48.410;9.054;2023-06-01T06:05:17;96378.47;;;15.65;100.00
2397;BME280;1209;48.410;9.054;2023-06-01T06:07:43;96381.09;;;15.72;100.00
2397;BME280;1209;48.410;9.054;2023-06-01T06:10:08;96387.56;;;15.96;100.00
2397;BME280;1209;48.410;9.054;2023-06-01T06:12:34;96384.50;;;16.05;100.00
2397;BME280;1209;48.410;9.054;2023-06-01T06:15:00;96385.66;;;16.29;100.00
2397;BME280;1209;48.410;9.054;2023-06-01T06:17:25;96380.97;;;16.38;100.00
2397;BME280;1209;48.410;9.054;2023-06-01T06:19:50;96385.47;;;16.31;100.00
2397;BME280;1209;48.410;9.054;2023-06-01T06:22:16;96384.63;;;16.37;100.00
2397;BME280;1209;48.410;9.054;2023-06-01T06:24:41;96385.63;;;16.43;100.00
2397;BME280;1209;48.410;9.054;2023-06-01T06:27:08;96380.31;;;16.56;100.00
2397;BME280;1209;48.410;9.054;2023-06-01T06:29:34;96381.09;;;16.70;100.00
2397;BME280;1209;48.410;9.054;2023-06-01T06:31:59;96374.88;;;16.95;100.00
2397;BME280;1209;48.410;9.054;2023-06-01T06:34:24;96378.91;;;17.05;100.00
2397;BME280;1209;48.410;9.054;2023-06-01T06:36:50;96376.56;;;17.21;100.00
2397;BME280;1209;48.410;9.054;2023-06-01T06:39:17;96374.25;;;17.31;100.00
2397;BME280;1209;48.410;9.054;2023-06-01T06:41:43;96374.00;;;17.65;100.00
2397;BME280;1209;48.410;9.054;2023-06-01T06:44:08;96379.22;;;17.78;100.00
2397;BME280;1209;48.410;9.054;2023-06-01T06:46:33;96386.41;;;17.89;100.00
2397;BME280;1209;48.410;9.054;2023-06-01T06:48:59;96385.19;;;17.91;100.00
2397;BME280;1209;48.410;9.054;2023-06-01T06:51:24;96383.47;;;17.79;100.00
2397;BME280;1209;48.410;9.054;2023-06-01T06:53:50;96383.13;;;17.93;100.00
2397;BME280;1209;48.410;9.054;2023-06-01T06:56:15;96377.09;;;18.30;97.61
2397;BME280;1209;48.410;9.054;2023-06-01T06:58:41;96386.91;;;18.41;95.61
2397;BME280;1209;48.410;9.054;2023-06-01T07:01:07;96383.56;;;18.52;95.15
2397;BME280;1209;48.410;9.054;2023-06-01T07:03:32;96381.50;;;18.36;94.70
2397;BME280;1209;48.410;9.054;2023-06-01T07:05:57;96381.25;;;18.37;92.46
2397;BME280;1209;48.410;9.054;2023-06-01T07:08:23;96374.47;;;18.66;91.94
2397;BME280;1209;48.410;9.054;2023-06-01T07:10:48;96371.91;;;18.90;90.08
2397;BME280;1209;48.410;9.054;2023-06-01T07:13:13;96382.97;;;18.68;89.24
2397;BME280;1209;48.410;9.054;2023-06-01T07:15:39;96381.16;;;18.69;86.87
2397;BME280;1209;48.410;9.054;2023-06-01T07:18:05;96380.69;;;18.72;84.20
2397;BME280;1209;48.410;9.054;2023-06-01T07:20:30;96381.56;;;19.14;88.64
2397;BME280;1209;48.410;9.054;2023-06-01T07:22:55;96381.72;;;19.19;86.79
2397;BME280;1209;48.410;9.054;2023-06-01T07:25:21;96383.34;;;19.32;86.25
2397;BME280;1209;48.410;9.054;2023-06-01T07:27:47;96385.88;;;19.57;84.74
2397;BME280;1209;48.410;9.054;2023-06-01T07:30:13;96381.97;;;19.59;84.58
2397;BME280;1209;48.410;9.054;2023-06-01T07:32:39;96381.03;;;19.77;83.03
2397;BME280;1209;48.410;9.054;2023-06-01T07:35:05;96380.47;;;19.75;80.01
2397;BME280;1209;48.410;9.054;2023-06-01T07:37:31;96385.44;;;19.83;79.03
2397;BME280;1209;48.410;9.054;2023-06-01T07:39:57;96382.44;;;20.26;81.85
2397;BME280;1209;48.410;9.054;2023-06-01T07:42:22;96386.03;;;20.43;80.86
2397;BME280;1209;48.410;9.054;2023-06-01T07:44:48;96376.22;;;20.44;81.90
2397;BME280;1209;48.410;9.054;2023-06-01T07:47:13;96381.28;;;20.34;83.17
2397;BME280;1209;48.410;9.054;2023-06-01T07:49:39;96379.66;;;20.33;79.33
2397;BME280;1209;48.410;9.054;2023-06-01T07:52:05;96386.13;;;20.37;79.96
2397;BME280;1209;48.410;9.054;2023-06-01T07:54:33;96379.72;;;20.73;78.88
2397;BME280;1209;48.410;9.054;2023-06-01T07:57:00;96390.03;;;20.58;78.47
2397;BME280;1209;48.410;9.054;2023-06-01T07:59:26;96384.06;;;20.51;76.61
2397;BME280;1209;48.410;9.054;2023-06-01T08:01:53;96388.25;;;20.75;78.60
2397;BME280;1209;48.410;9.054;2023-06-01T08:04:19;96387.44;;;20.86;82.27
2397;BME280;1209;48.410;9.054;2023-06-01T08:06:47;96380.59;;;20.90;80.02
2397;BME280;1209;48.410;9.054;2023-06-01T08:09:13;96386.00;;;20.95;79.17
2397;BME280;1209;48.410;9.054;2023-06-01T08:11:38;96381.09;;;20.87;77.67
2397;BME280;1209;48.410;9.054;2023-06-01T08:14:04;96385.31;;;21.28;77.10
2397;BME280;1209;48.410;9.054;2023-06-01T08:16:32;96378.19;;;21.46;76.86
2397;BME280;1209;48.410;9.054;2023-06-01T08:18:58;96376.41;;;21.68;75.00
2397;BME280;1209;48.410;9.054;2023-06-01T08:21:24;96378.47;;;21.78;74.50
2397;BME280;1209;48.410;9.054;2023-06-01T08:23:51;96383.41;;;21.74;74.71
2397;BME280;1209;48.410;9.054;2023-06-01T08:26:17;96382.53;;;22.02;73.08
2397;BME280;1209;48.410;9.054;2023-06-01T08:28:43;96367.91;;;22.38;72.77
2397;BME280;1209;48.410;9.054;2023-06-01T08:31:16;96372.44;;;22.21;72.21
2397;BME280;1209;48.410;9.054;2023-06-01T08:33:41;96377.13;;;22.52;73.04
2397;BME280;1209;48.410;9.054;2023-06-01T08:36:07;96376.75;;;22.66;72.05
2397;BME280;1209;48.410;9.054;2023-06-01T08:38:32;96375.03;;;22.54;72.82
2397;BME280;1209;48.410;9.054;2023-06-01T08:41:00;96370.03;;;22.80;70.29
2397;BME280;1209;48.410;9.054;2023-06-01T08:43:28;96381.44;;;22.97;71.35
2397;BME280;1209;48.410;9.054;2023-06-01T08:45:57;96376.31;;;23.17;67.77
2397;BME280;1209;48.410;9.054;2023-06-01T08:48:23;96382.69;;;22.89;67.25
2397;BME280;1209;48.410;9.054;2023-06-01T08:50:49;96377.31;;;23.11;70.44
2397;BME280;1209;48.410;9.054;2023-06-01T08:53:19;96376.06;;;23.46;67.48
2397;BME280;1209;48.410;9.054;2023-06-01T08:55:53;96373.41;;;23.46;68.65
2397;BME280;1209;48.410;9.054;2023-06-01T08:58:19;96370.47;;;23.74;65.25
2397;BME280;1209;48.410;9.054;2023-06-01T09:00:47;96367.97;;;23.63;66.07
2397;BME280;1209;48.410;9.054;2023-06-01T09:03:13;96366.25;;;23.51;66.91
2397;BME280;1209;48.410;9.054;2023-06-01T09:05:39;96374.69;;;23.65;66.80
2397;BME280;1209;48.410;9.054;2023-06-01T09:08:04;96369.38;;;24.07;63.92
2397;BME280;1209;48.410;9.054;2023-06-01T09:10:30;96375.88;;;24.22;64.70
2397;BME280;1209;48.410;9.054;2023-06-01T09:12:55;96373.56;;;23.98;66.27
2397;BME280;1209;48.410;9.054;2023-06-01T09:15:21;96375.59;;;24.18;64.66
2397;BME280;1209;48.410;9.054;2023-06-01T09:17:49;96371.75;;;24.46;63.19
2397;BME280;1209;48.410;9.054;2023-06-01T09:20:28;96372.94;;;24.23;63.17
2397;BME280;1209;48.410;9.054;2023-06-01T09:22:54;96364.19;;;24.28;64.48
2397;BME280;1209;48.410;9.054;2023-06-01T09:25:31;96366.78;;;24.65;64.16
2397;BME280;1209;48.410;9.054;2023-06-01T09:27:58;96364.69;;;24.72;62.46
2397;BME280;1209;48.410;9.054;2023-06-01T09:30:37;96360.16;;;24.77;63.37
2397;BME280;1209;48.410;9.054;2023-06-01T09:33:10;96358.50;;;24.66;62.75
2397;BME280;1209;48.410;9.054;2023-06-01T09:38:08;96351.22;;;25.24;60.97
2397;BME280;1209;48.410;9.054;2023-06-01T09:40:34;96347.75;;;25.34;63.26
2397;BME280;1209;48.410;9.054;2023-06-01T09:43:00;96349.63;;;25.54;63.30
2397;BME280;1209;48.410;9.054;2023-06-01T09:45:27;96350.47;;;25.54;61.52
2397;BME280;1209;48.410;9.054;2023-06-01T09:47:52;96345.63;;;25.61;61.46
2397;BME280;1209;48.410;9.054;2023-06-01T09:50:38;96342.13;;;25.46;60.68
2397;BME280;1209;48.410;9.054;2023-06-01T09:53:04;96340.22;;;26.27;58.59
2397;BME280;1209;48.410;9.054;2023-06-01T09:55:31;96343.16;;;26.31;58.45
2397;BME280;1209;48.410;9.054;2023-06-01T09:58:19;96329.09;;;26.75;58.81
2397;BME280;1209;48.410;9.054;2023-06-01T10:00:49;96335.38;;;26.45;56.72
2397;BME280;1209;48.410;9.054;2023-06-01T10:03:16;96331.09;;;26.39;54.51
2397;BME280;1209;48.410;9.054;2023-06-01T10:05:45;96336.91;;;26.66;54.23
2397;BME280;1209;48.410;9.054;2023-06-01T10:08:12;96331.41;;;26.96;54.50
2397;BME280;1209;48.410;9.054;2023-06-01T10:10:45;96331.72;;;26.85;53.97
2397;BME280;1209;48.410;9.054;2023-06-01T10:13:11;96325.38;;;26.65;55.55
2397;BME280;1209;48.410;9.054;2023-06-01T10:15:37;96335.41;;;27.04;52.81
2397;BME280;1209;48.410;9.054;2023-06-01T10:18:03;96320.19;;;26.84;54.11
2397;BME280;1209;48.410;9.054;2023-06-01T10:20:35;96325.75;;;27.42;51.54
2397;BME280;1209;48.410;9.054;2023-06-01T10:23:01;96320.88;;;27.83;49.24
2397;BME280;1209;48.410;9.054;2023-06-01T10:25:37;96325.13;;;27.89;49.60
2397;BME280;1209;48.410;9.054;2023-06-01T10:28:06;96334.06;;;27.41;49.12
2397;BME280;1209;48.410;9.054;2023-06-01T10:30:35;96320.03;;;27.20;49.80
2397;BME280;1209;48.410;9.054;2023-06-01T10:33:00;96322.25;;;27.08;48.41
2397;BME280;1209;48.410;9.054;2023-06-01T10:40:43;96325.69;;;27.86;47.54
2397;BME280;1209;48.410;9.054;2023-06-01T10:46:03;96327.63;;;27.81;45.88
2397;BME280;1209;48.410;9.054;2023-06-01T10:48:51;96323.13;;;28.29;46.83
2397;BME280;1209;48.410;9.054;2023-06-01T10:51:21;96315.06;;;28.29;45.81
2397;BME280;1209;48.410;9.054;2023-06-01T10:53:49;96311.59;;;28.95;45.27
2397;BME280;1209;48.410;9.054;2023-06-01T10:56:27;96310.16;;;28.36;44.53
2397;BME280;1209;48.410;9.054;2023-06-01T11:01:38;96312.84;;;28.79;46.20
2397;BME280;1209;48.410;9.054;2023-06-01T11:04:04;96319.09;;;28.98;46.95
2397;BME280;1209;48.410;9.054;2023-06-01T11:06:40;96306.66;;;28.60;45.52
2397;BME280;1209;48.410;9.054;2023-06-01T11:09:08;96304.69;;;28.89;44.44
2397;BME280;1209;48.410;9.054;2023-06-01T11:14:28;96300.72;;;28.87;46.19
2397;BME280;1209;48.410;9.054;2023-06-01T11:17:29;96302.44;;;28.96;44.96
2397;BME280;1209;48.410;9.054;2023-06-01T11:19:59;96303.63;;;29.60;43.48
2397;BME280;1209;48.410;9.054;2023-06-01T11:22:32;96305.19;;;29.48;43.55
2397;BME280;1209;48.410;9.054;2023-06-01T11:25:02;96308.03;;;29.19;44.66
2397;BME280;1209;48.410;9.054;2023-06-01T11:27:28;96290.72;;;29.25;45.34
2397;BME280;1209;48.410;9.054;2023-06-01T11:29:55;96297.91;;;29.29;42.03
2397;BME280;1209;48.410;9.054;2023-06-01T11:32:22;96285.50;;;29.14;44.35
2397;BME280;1209;48.410;9.054;2023-06-01T11:34:48;96283.81;;;29.70;43.01
2397;BME280;1209;48.410;9.054;2023-06-01T11:37:14;96280.81;;;29.39;45.42
2397;BME280;1209;48.410;9.054;2023-06-01T11:39:40;96289.75;;;29.53;44.71
2397;BME280;1209;48.410;9.054;2023-06-01T11:42:06;96268.72;;;29.55;43.50
2397;BME280;1209;48.410;9.054;2023-06-01T11:44:36;96275.81;;;30.11;43.27
2397;BME280;1209;48.410;9.054;2023-06-01T11:47:03;96280.22;;;29.61;44.05
2397;BME280;1209;48.410;9.054;2023-06-01T11:49:29;96274.31;;;29.59;44.27
2397;BME280;1209;48.410;9.054;2023-06-01T11:51:55;96269.91;;;29.95;43.49
2397;BME280;1209;48.410;9.054;2023-06-01T11:54:23;96270.09;;;29.85;43.66
2397;BME280;1209;48.410;9.054;2023-06-01T11:56:49;96274.22;;;30.24;43.36
2397;BME280;1209;48.410;9.054;2023-06-01T11:59:14;96276.03;;;30.15;41.76
2397;BME280;1209;48.410;9.054;2023-06-01T12:01:44;96263.47;;;29.77;43.81
2397;BME280;1209;48.410;9.054;2023-06-01T12:04:13;96258.31;;;29.81;43.52
2397;BME280;1209;48.410;9.054;2023-06-01T12:06:39;96259.22;;;29.90;43.59
2397;BME280;1209;48.410;9.054;2023-06-01T12:09:04;96263.75;;;30.63;41.80
2397;BME280;1209;48.410;9.054;2023-06-01T12:11:32;96258.13;;;30.87;42.71
2397;BME280;1209;48.410;9.054;2023-06-01T12:13:58;96262.66;;;30.23;43.97
2397;BME280;1209;48.410;9.054;2023-06-01T12:16:24;96256.94;;;31.16;40.94
2397;BME280;1209;48.410;9.054;2023-06-01T12:18:52;96255.47;;;31.32;40.45
2397;BME280;1209;48.410;9.054;2023-06-01T12:21:18;96258.06;;;30.24;41.59
2397;BME280;1209;48.410;9.054;2023-06-01T12:23:48;96255.16;;;30.75;40.24
2397;BME280;1209;48.410;9.054;2023-06-01T12:26:16;96250.75;;;30.79;41.27
2397;BME280;1209;48.410;9.054;2023-06-01T12:31:16;96256.88;;;31.52;41.33
2397;BME280;1209;48.410;9.054;2023-06-01T12:33:43;96252.88;;;32.03;41.41
2397;BME280;1209;48.410;9.054;2023-06-01T12:36:33;96243.78;;;31.00;41.38
2397;BME280;1209;48.410;9.054;2023-06-01T12:39:00;96242.31;;;31.61;41.09
2397;BME280;1209;48.410;9.054;2023-06-01T12:41:28;96236.84;;;31.08;41.79
2397;BME280;1209;48.410;9.054;2023-06-01T12:43:54;96234.09;;;30.99;40.97
2397;BME280;1209;48.410;9.054;2023-06-01T12:46:21;96245.63;;;31.58;41.62
2397;BME280;1209;48.410;9.054;2023-06-01T12:48:48;96240.13;;;31.41;41.36
2397;BME280;1209;48.410;9.054;2023-06-01T12:51:14;96228.88;;;30.81;41.71
2397;BME280;1209;48.410;9.054;2023-06-01T12:53:40;96235.44;;;31.24;39.28
2397;BME280;1209;48.410;9.054;2023-06-01T12:56:07;96230.09;;;30.75;38.84
2397;BME280;1209;48.410;9.054;2023-06-01T12:58:33;96223.53;;;31.25;39.44
2397;BME280;1209;48.410;9.054;2023-06-01T13:00:58;96235.50;;;32.26;37.89
2397;BME280;1209;48.410;9.054;2023-06-01T13:03:24;96229.25;;;31.55;39.60
2397;BME280;1209;48.410;9.054;2023-06-01T13:05:50;96233.06;;;31.76;38.68
2397;BME280;1209;48.410;9.054;2023-06-01T13:08:16;96231.63;;;31.56;38.30
2397;BME280;1209;48.410;9.054;2023-06-01T13:10:42;96224.97;;;31.85;37.46
2397;BME280;1209;48.410;9.054;2023-06-01T13:13:08;96220.69;;;31.30;39.27
2397;BME280;1209;48.410;9.054;2023-06-01T13:15:34;96217.03;;;31.80;37.07
2397;BME280;1209;48.410;9.054;2023-06-01T13:18:00;96222.06;;;31.73;37.03
2397;BME280;1209;48.410;9.054;2023-06-01T13:20:25;96215.75;;;30.88;37.40
2397;BME280;1209;48.410;9.054;2023-06-01T13:22:51;96211.78;;;32.23;37.71
2397;BME280;1209;48.410;9.054;2023-06-01T13:25:17;96210.19;;;31.82;37.67
2397;BME280;1209;48.410;9.054;2023-06-01T13:27:43;96202.00;;;32.05;37.97
2397;BME280;1209;48.410;9.054;2023-06-01T13:30:09;96197.03;;;30.55;38.53
2397;BME280;1209;48.410;9.054;2023-06-01T13:32:34;96203.16;;;31.50;38.70
2397;BME280;1209;48.410;9.054;2023-06-01T13:35:00;96204.53;;;32.01;37.05
2397;BME280;1209;48.410;9.054;2023-06-01T13:37:26;96210.09;;;32.05;35.75
2397;BME280;1209;48.410;9.054;2023-06-01T13:39:51;96198.28;;;31.83;37.92
2397;BME280;1209;48.410;9.054;2023-06-01T13:42:16;96197.78;;;30.83;38.75
2397;BME280;1209;48.410;9.054;2023-06-01T13:44:42;96193.97;;;30.84;36.96
2397;BME280;1209;48.410;9.054;2023-06-01T13:47:12;96194.66;;;31.97;37.32